createdAt,value
2019-02-15T00:00:17.057Z,23.91
2019-02-15T00:05:25.841Z,23.89
2019-02-15T00:10:34.715Z,24.26
2019-02-15T00:15:43.548Z,23.51
2019-02-15T00:20:52.497Z,24.14
2019-02-15T00:26:01.310Z,23.61
2019-02-15T00:31:10.185Z,25.83
2019-02-15T00:36:19.074Z,24.97
2019-02-15T00:41:28.274Z,27.67
2019-02-15T00:46:37.094Z,27.67
2019-02-15T00:51:45.995Z,28.86
2019-02-15T00:56:54.995Z,28.36
2019-02-15T01:02:03.890Z,28.74
2019-02-15T01:07:12.718Z,28.45
2019-02-15T01:12:21.638Z,28.92
2019-02-15T01:17:30.438Z,31.57
2019-02-15T01:22:39.355Z,32.48
2019-02-15T01:28:00.005Z,32.77
2019-02-15T01:32:48.867Z,33.82
2019-02-15T01:37:58.124Z,32.97
2019-02-15T01:43:06.991Z,32.07
2019-02-15T01:48:15.826Z,34.56
2019-02-15T01:53:25.014Z,32.59
2019-02-15T01:58:33.819Z,34.69
2019-02-15T02:03:43.400Z,35.91
2019-02-15T02:08:52.214Z,35.74
2019-02-15T02:14:01.090Z,37.45
2019-02-15T02:19:09.926Z,36.91
2019-02-15T02:24:18.814Z,36.10
2019-02-15T02:29:28.031Z,36.03
2019-02-15T02:34:36.927Z,35.53
2019-02-15T02:39:45.729Z,36.54
2019-02-15T02:44:55.083Z,35.00
2019-02-15T02:50:03.983Z,35.69
2019-02-15T02:55:12.875Z,37.77
2019-02-15T03:00:21.673Z,37.44
2019-02-15T03:05:30.698Z,39.99
2019-02-15T03:10:39.557Z,37.77
2019-02-15T03:15:48.478Z,34.97
2019-02-15T03:20:57.314Z,33.91
2019-02-15T03:26:06.208Z,33.00
2019-02-15T03:31:15.048Z,34.33
2019-02-15T03:36:23.938Z,35.81
2019-02-15T03:41:32.255Z,40.78
2019-02-15T03:46:41.141Z,39.93
2019-02-15T03:51:49.961Z,39.52
2019-02-15T03:56:59.210Z,43.53
2019-02-15T04:02:08.050Z,40.42
2019-02-15T04:07:16.957Z,47.10
2019-02-15T04:12:25.742Z,47.29
2019-02-15T04:17:34.659Z,42.11
2019-02-15T04:22:43.519Z,40.04
2019-02-15T04:27:52.402Z,39.31
2019-02-15T04:33:01.242Z,33.61
2019-02-15T04:38:10.155Z,32.67
2019-02-15T04:43:18.975Z,29.38
2019-02-15T04:48:28.461Z,30.87
2019-02-15T04:53:37.266Z,32.81
2019-02-15T04:58:46.133Z,37.33
2019-02-15T05:03:55.051Z,33.07
2019-02-15T05:09:03.950Z,36.55
2019-02-15T05:14:12.855Z,37.56
2019-02-15T05:19:21.709Z,37.12
2019-02-15T05:24:30.543Z,38.07
2019-02-15T05:29:39.522Z,34.08
2019-02-15T05:34:48.378Z,34.59
2019-02-15T05:39:57.306Z,37.31
2019-02-15T05:45:06.108Z,39.05
2019-02-15T05:50:15.003Z,32.45
2019-02-15T05:55:23.817Z,33.95
2019-02-15T06:00:37.124Z,35.93
2019-02-15T06:05:41.052Z,35.02
2019-02-15T06:10:49.944Z,32.85
2019-02-15T06:15:58.744Z,32.69
2019-02-15T06:21:07.610Z,35.44
2019-02-15T06:26:16.507Z,33.93
2019-02-15T06:31:25.406Z,38.35
2019-02-15T06:36:34.231Z,34.67
2019-02-15T06:41:43.355Z,34.19
2019-02-15T06:46:52.231Z,35.89
2019-02-15T06:52:01.065Z,33.10
2019-02-15T06:57:11.228Z,34.93
2019-02-15T07:02:10.152Z,32.35
2019-02-15T07:07:18.971Z,33.51
2019-02-15T07:12:27.883Z,33.21
2019-02-15T07:17:36.789Z,33.95
2019-02-15T07:22:45.672Z,34.62
2019-02-15T07:27:54.465Z,35.28
2019-02-15T07:33:03.391Z,34.78
2019-02-15T07:38:12.303Z,35.85
2019-02-15T07:43:21.164Z,34.12
2019-02-15T07:48:29.986Z,38.41
2019-02-15T07:53:42.508Z,37.32
2019-02-15T07:58:41.262Z,36.73
2019-02-15T08:03:50.147Z,35.69
2019-02-15T08:08:58.938Z,36.19
2019-02-15T08:14:14.574Z,35.04
2019-02-15T08:19:16.126Z,34.93
2019-02-15T08:24:25.384Z,34.19
2019-02-15T08:29:34.183Z,37.42
2019-02-15T08:34:43.389Z,36.56
2019-02-15T08:39:52.299Z,39.18
2019-02-15T08:45:01.231Z,31.85
2019-02-15T08:50:10.776Z,32.16
2019-02-15T08:55:19.990Z,30.98
2019-02-15T09:00:28.856Z,31.02
2019-02-15T09:05:37.871Z,31.00
2019-02-15T09:10:46.969Z,28.64
2019-02-15T09:15:59.651Z,26.00
2019-02-15T09:20:58.894Z,23.78
2019-02-15T09:26:07.931Z,25.94
2019-02-15T09:31:16.945Z,26.27
2019-02-15T09:36:26.072Z,24.35
2019-02-15T09:41:34.902Z,23.00
2019-02-15T09:46:44.181Z,26.49
2019-02-15T09:51:53.042Z,23.66
2019-02-15T09:57:01.947Z,23.86
2019-02-15T10:02:10.780Z,24.79
2019-02-15T10:07:19.717Z,25.05
2019-02-15T10:12:28.563Z,24.70
2019-02-15T10:17:37.496Z,23.25
2019-02-15T10:22:46.375Z,24.03
2019-02-15T10:27:55.338Z,23.50
2019-02-15T10:33:04.227Z,24.35
2019-02-15T10:38:13.847Z,21.91
2019-02-15T10:43:22.719Z,19.70
2019-02-15T10:48:31.643Z,20.26
2019-02-15T10:53:47.615Z,20.46
2019-02-15T10:58:46.482Z,18.53
2019-02-15T11:03:55.344Z,18.51
2019-02-15T11:09:04.253Z,16.73
2019-02-15T11:14:13.061Z,18.85
2019-02-15T11:19:22.062Z,17.48
2019-02-15T11:24:30.934Z,18.54
2019-02-15T11:29:39.913Z,16.85
2019-02-15T11:34:48.800Z,17.97
2019-02-15T11:39:58.210Z,21.99
2019-02-15T11:45:07.054Z,17.58
2019-02-15T11:50:16.009Z,17.13
2019-02-15T11:55:25.227Z,18.58
2019-02-15T12:00:34.423Z,16.01
2019-02-15T12:05:43.306Z,16.42
2019-02-15T12:10:52.238Z,16.80
2019-02-15T12:16:00.097Z,15.13
2019-02-15T12:21:08.947Z,14.47
2019-02-15T12:26:17.902Z,14.93
2019-02-15T12:31:26.889Z,14.86
2019-02-15T12:36:35.731Z,14.79
2019-02-15T12:41:44.672Z,14.74
2019-02-15T12:46:53.493Z,17.24
2019-02-15T12:52:02.498Z,13.78
2019-02-15T12:57:11.367Z,14.51
2019-02-15T13:02:20.298Z,14.44
2019-02-15T13:07:31.623Z,15.67
2019-02-15T13:12:37.944Z,14.10
2019-02-15T13:17:46.786Z,14.04
2019-02-15T13:22:55.718Z,14.31
2019-02-15T13:28:04.616Z,13.49
2019-02-15T13:33:13.576Z,14.69
2019-02-15T13:38:22.537Z,14.38
2019-02-15T13:43:31.541Z,14.02
2019-02-15T13:48:40.385Z,13.28
2019-02-15T13:53:49.315Z,13.32
2019-02-15T13:58:58.502Z,13.78
2019-02-15T14:04:07.631Z,13.01
2019-02-15T14:09:16.515Z,12.75
2019-02-15T14:14:25.827Z,13.87
2019-02-15T14:19:34.674Z,12.30
2019-02-15T14:24:42.167Z,11.20
2019-02-15T14:29:51.023Z,13.71
2019-02-15T14:34:59.981Z,12.68
2019-02-15T14:40:08.890Z,10.59
2019-02-15T14:45:17.955Z,10.50
2019-02-15T14:50:27.123Z,11.84
2019-02-15T14:55:36.117Z,11.40
2019-02-15T15:00:45.029Z,13.53
2019-02-15T15:05:55.146Z,9.75
2019-02-15T15:11:03.568Z,10.26
2019-02-15T15:16:12.799Z,9.64
2019-02-15T15:21:21.650Z,11.67
2019-02-15T15:26:30.958Z,10.63
2019-02-15T15:31:40.287Z,9.97
2019-02-15T15:36:50.132Z,10.58
2019-02-15T15:41:58.564Z,10.91
2019-02-15T15:47:07.968Z,11.10
2019-02-15T15:52:16.907Z,10.17
2019-02-15T15:57:26.110Z,11.59
2019-02-15T16:02:35.637Z,12.76
2019-02-15T16:07:44.856Z,15.37
2019-02-15T16:12:53.833Z,15.39
2019-02-15T16:18:03.060Z,16.03
2019-02-15T16:23:12.656Z,12.89
2019-02-15T16:28:21.914Z,13.22
2019-02-15T16:33:31.022Z,11.89
2019-02-15T16:38:39.992Z,15.83
2019-02-15T16:43:48.832Z,13.76
2019-02-15T16:48:56.301Z,13.22
2019-02-15T16:54:05.215Z,13.77
2019-02-15T16:59:14.146Z,14.56
2019-02-15T17:04:23.209Z,13.77
2019-02-15T17:09:32.171Z,14.07
2019-02-15T17:14:41.060Z,13.31
2019-02-15T17:19:50.002Z,13.00
2019-02-15T17:25:00.553Z,14.69
2019-02-15T17:29:59.508Z,14.83
2019-02-15T17:35:08.407Z,14.10
2019-02-15T17:40:17.409Z,15.23
2019-02-15T17:45:26.798Z,14.97
2019-02-15T17:50:35.739Z,16.90
2019-02-15T17:55:44.623Z,16.40
2019-02-15T18:00:54.769Z,18.71
2019-02-15T18:05:57.031Z,16.49
2019-02-15T18:10:55.938Z,21.06
2019-02-15T18:16:04.791Z,18.91
2019-02-15T18:21:13.869Z,20.09
2019-02-15T18:26:22.706Z,24.19
2019-02-15T18:31:31.683Z,26.18
2019-02-15T18:36:40.515Z,21.80
2019-02-15T18:41:49.458Z,20.67
2019-02-15T18:46:58.342Z,22.43
2019-02-15T18:52:07.286Z,22.73
2019-02-15T18:57:16.132Z,23.09
2019-02-15T19:02:24.831Z,24.25
2019-02-15T19:07:33.653Z,24.44
2019-02-15T19:12:41.125Z,24.08
2019-02-15T19:17:49.962Z,24.35
2019-02-15T19:22:58.920Z,28.55
2019-02-15T19:28:07.749Z,26.62
2019-02-15T19:33:16.646Z,25.55
2019-02-15T19:38:25.475Z,26.84
2019-02-15T19:43:34.465Z,26.80
2019-02-15T19:48:43.460Z,22.91
2019-02-15T19:53:52.399Z,19.85
2019-02-15T19:59:01.275Z,18.92
2019-02-15T20:04:10.417Z,19.09
2019-02-15T20:09:19.483Z,18.95
2019-02-15T20:14:28.383Z,19.98
2019-02-15T20:19:37.255Z,24.45
2019-02-15T20:24:46.208Z,26.04
2019-02-15T20:29:55.056Z,26.74
2019-02-15T20:35:04.018Z,27.30
2019-02-15T20:40:13.242Z,29.24
2019-02-15T20:45:22.171Z,31.82
2019-02-15T20:50:31.092Z,28.10
2019-02-15T20:55:40.269Z,29.29
2019-02-15T21:00:49.126Z,30.66
2019-02-15T21:05:58.006Z,30.93
2019-02-15T21:11:06.835Z,30.13
2019-02-15T21:16:15.807Z,30.59
2019-02-15T21:21:24.900Z,29.24
2019-02-15T21:26:33.848Z,31.85
2019-02-15T21:31:42.688Z,35.26
2019-02-15T21:36:51.580Z,34.55
2019-02-15T21:42:00.430Z,35.13
2019-02-15T21:47:09.892Z,35.02
2019-02-15T21:52:18.909Z,38.13
2019-02-15T21:57:27.867Z,36.26
2019-02-15T22:02:36.711Z,37.28
2019-02-15T22:07:45.766Z,39.70
2019-02-15T22:12:54.662Z,40.44
2019-02-15T22:18:04.139Z,37.24
2019-02-15T22:23:13.524Z,33.21
2019-02-15T22:28:22.466Z,31.34
2019-02-15T22:33:31.706Z,31.58
2019-02-15T22:38:40.905Z,28.04
2019-02-15T22:43:49.720Z,28.91
2019-02-15T22:48:58.772Z,31.34
2019-02-15T22:54:07.612Z,30.51
2019-02-15T22:59:16.968Z,34.44
2019-02-15T23:04:25.915Z,38.08
2019-02-15T23:09:34.814Z,34.69
2019-02-15T23:14:43.712Z,36.57
2019-02-15T23:19:52.663Z,36.41
2019-02-15T23:25:01.535Z,36.34
2019-02-15T23:30:10.511Z,36.25
2019-02-15T23:35:19.787Z,34.30
2019-02-15T23:40:28.694Z,30.89
2019-02-15T23:45:37.678Z,29.78
2019-02-15T23:50:54.285Z,28.40
2019-02-15T23:55:54.994Z,27.84
